createdAt,value
2023-03-27T00:01:27.625Z,98683.16
2023-03-27T00:03:55.760Z,98686.63
2023-03-27T00:06:25.310Z,98692.65
2023-03-27T00:08:53.612Z,98693.35
2023-03-27T00:11:25.060Z,98699.30
2023-03-27T00:13:55.831Z,98696.16
2023-03-27T00:16:26.917Z,98694.46
2023-03-27T00:18:56.135Z,98690.39
2023-03-27T00:21:26.106Z,98685.05
2023-03-27T00:23:54.794Z,98696.27
2023-03-27T00:26:23.335Z,98698.22
2023-03-27T00:28:51.581Z,98687.42
2023-03-27T00:31:19.675Z,98690.30
2023-03-27T00:33:47.704Z,98701.49
2023-03-27T00:36:15.829Z,98700.56
2023-03-27T00:38:43.895Z,98699.27
2023-03-27T00:41:12.880Z,98689.94
2023-03-27T00:43:44.058Z,98686.52
2023-03-27T00:46:15.559Z,98684.45
2023-03-27T00:48:48.166Z,98680.58
2023-03-27T00:51:16.750Z,98670.58
2023-03-27T00:53:47.668Z,98661.30
2023-03-27T00:56:16.708Z,98654.04
2023-03-27T00:58:51.033Z,98646.64
2023-03-27T01:01:21.989Z,98646.88
2023-03-27T01:03:51.583Z,98642.24
2023-03-27T01:06:21.448Z,98640.50
2023-03-27T01:08:49.464Z,98635.09
2023-03-27T01:11:26.484Z,98632.83
2023-03-27T01:14:03.491Z,98618.89
2023-03-27T01:16:56.538Z,98602.98
2023-03-27T01:19:58.335Z,98597.02
2023-03-27T01:22:45.888Z,98583.36
2023-03-27T01:25:37.163Z,98565.02
2023-03-27T01:28:27.570Z,98556.39
2023-03-27T01:31:15.570Z,98538.96
2023-03-27T01:33:52.860Z,98524.77
2023-03-27T01:36:51.931Z,98512.91
2023-03-27T01:39:35.908Z,98498.78
2023-03-27T01:42:18.446Z,98488.78
2023-03-27T01:45:01.908Z,98482.84
2023-03-27T01:47:38.928Z,98473.23
2023-03-27T01:50:13.122Z,98460.08
2023-03-27T01:52:47.484Z,98447.04
2023-03-27T01:55:19.536Z,98441.41
2023-03-27T01:58:05.114Z,98440.23
2023-03-27T02:00:51.936Z,98441.02
2023-03-27T02:03:27.960Z,98439.66
2023-03-27T02:06:03.351Z,98439.61
2023-03-27T02:08:50.345Z,98438.84
2023-03-27T02:11:25.052Z,98449.45
2023-03-27T02:14:00.542Z,98452.91
2023-03-27T02:16:33.951Z,98454.52
2023-03-27T02:19:12.647Z,98462.73
2023-03-27T02:21:40.716Z,98458.78
2023-03-27T02:24:09.103Z,98454.96
2023-03-27T02:26:37.884Z,98447.52
2023-03-27T02:29:35.020Z,98445.01
2023-03-27T02:32:24.235Z,98439.80
2023-03-27T02:35:01.287Z,98434.42
2023-03-27T02:37:54.995Z,98426.20
2023-03-27T02:41:04.332Z,98429.36
2023-03-27T02:44:03.739Z,98435.68
2023-03-27T02:46:54.795Z,98436.70
2023-03-27T02:49:31.511Z,98437.05
2023-03-27T02:52:09.726Z,98436.05
2023-03-27T02:54:51.076Z,98440.91
2023-03-27T02:57:25.265Z,98436.86
2023-03-27T03:00:25.659Z,98430.30
2023-03-27T03:03:53.933Z,98425.64
2023-03-27T03:06:42.609Z,98419.41
2023-03-27T03:09:11.514Z,98407.11
2023-03-27T03:11:47.442Z,98398.99
2023-03-27T03:14:17.546Z,98396.36
2023-03-27T03:16:45.852Z,98384.64
2023-03-27T03:19:13.922Z,98376.20
2023-03-27T03:21:42.223Z,98377.97
2023-03-27T03:24:13.178Z,98365.84
2023-03-27T03:26:41.123Z,98365.35
2023-03-27T03:29:10.465Z,98361.65
2023-03-27T03:31:44.605Z,98354.66
2023-03-27T03:34:19.073Z,98338.11
2023-03-27T03:36:49.834Z,98333.44
2023-03-27T03:39:22.319Z,98329.45
2023-03-27T03:41:51.568Z,98318.80
2023-03-27T03:44:20.664Z,98312.23
2023-03-27T03:46:49.546Z,98305.34
2023-03-27T03:49:22.293Z,98292.23
2023-03-27T03:52:04.222Z,98277.29
2023-03-27T03:54:33.340Z,98273.67
2023-03-27T03:57:03.243Z,98271.77
2023-03-27T03:59:32.105Z,98273.66
2023-03-27T04:02:31.571Z,98269.52
2023-03-27T04:05:09.502Z,98265.70
2023-03-27T04:07:40.327Z,98261.41
2023-03-27T04:10:28.802Z,98258.77
2023-03-27T04:12:58.636Z,98253.88
2023-03-27T04:15:36.967Z,98243.17
2023-03-27T04:18:09.447Z,98241.56
2023-03-27T04:20:38.980Z,98241.73
2023-03-27T04:23:10.879Z,98238.55
2023-03-27T04:25:41.197Z,98232.53
2023-03-27T04:28:16.491Z,98230.44
2023-03-27T04:30:50.474Z,98227.52
2023-03-27T04:33:31.347Z,98219.55
2023-03-27T04:36:19.162Z,98214.54
2023-03-27T04:38:56.804Z,98209.29
2023-03-27T04:41:24.864Z,98199.85
2023-03-27T04:43:53.660Z,98200.98
2023-03-27T04:46:21.944Z,98193.83
2023-03-27T04:48:54.443Z,98191.43
2023-03-27T04:51:35.383Z,98182.21
2023-03-27T04:54:07.447Z,98178.30
2023-03-27T04:56:41.856Z,98174.16
2023-03-27T04:59:09.781Z,98171.85
2023-03-27T05:01:38.276Z,98167.34
2023-03-27T05:04:17.160Z,98163.41
2023-03-27T05:07:05.967Z,98165.90
2023-03-27T05:09:33.940Z,98162.81
2023-03-27T05:12:01.954Z,98152.33
2023-03-27T05:14:35.652Z,98148.83
2023-03-27T05:17:04.714Z,98140.95
2023-03-27T05:19:32.634Z,98139.18
2023-03-27T05:22:02.267Z,98146.58
2023-03-27T05:24:31.182Z,98144.77
2023-03-27T05:26:59.277Z,98142.23
2023-03-27T05:29:27.449Z,98140.11
2023-03-27T05:32:03.410Z,98140.70
2023-03-27T05:34:42.442Z,98137.14
2023-03-27T05:37:12.379Z,98137.17
2023-03-27T05:40:00.397Z,98133.35
2023-03-27T05:42:28.322Z,98137.47
2023-03-27T05:44:56.628Z,98142.20
2023-03-27T05:47:24.653Z,98144.13
2023-03-27T05:49:54.082Z,98144.77
2023-03-27T05:52:22.380Z,98147.57
2023-03-27T05:54:56.902Z,98151.79
2023-03-27T05:57:25.342Z,98156.16
2023-03-27T05:59:57.019Z,98156.72
2023-03-27T06:02:25.636Z,98157.15
2023-03-27T06:04:59.444Z,98154.80
2023-03-27T06:07:33.869Z,98161.32
2023-03-27T06:10:13.164Z,98165.17
2023-03-27T06:12:47.020Z,98165.76
2023-03-27T06:15:25.806Z,98170.81
2023-03-27T06:18:05.000Z,98177.03
2023-03-27T06:20:38.173Z,98178.21
2023-03-27T06:23:06.555Z,98173.58
2023-03-27T06:25:37.852Z,98171.95
2023-03-27T06:28:09.594Z,98177.52
2023-03-27T06:30:49.952Z,98180.77
2023-03-27T06:33:43.987Z,98178.34
2023-03-27T06:36:22.733Z,98179.80
2023-03-27T06:38:52.050Z,98188.39
2023-03-27T06:41:20.327Z,98187.13
2023-03-27T06:44:06.668Z,98183.27
2023-03-27T06:46:54.187Z,98195.73
2023-03-27T06:49:47.860Z,98197.25
2023-03-27T06:52:19.973Z,98199.77
2023-03-27T06:54:48.610Z,98207.94
2023-03-27T06:57:16.885Z,98213.64
2023-03-27T06:59:55.100Z,98212.66
2023-03-27T07:02:25.776Z,98214.78
2023-03-27T07:05:36.843Z,98225.33
2023-03-27T07:08:22.324Z,98222.02
2023-03-27T07:11:08.019Z,98227.48
2023-03-27T07:13:43.394Z,98237.33
2023-03-27T07:16:17.143Z,98242.25
2023-03-27T07:18:46.089Z,98241.91
2023-03-27T07:21:15.944Z,98241.42
2023-03-27T07:23:45.651Z,98238.08
2023-03-27T07:26:17.414Z,98238.27
2023-03-27T07:29:00.140Z,98237.48
2023-03-27T07:31:48.985Z,98228.62
2023-03-27T07:34:18.765Z,98219.41
2023-03-27T07:37:00.784Z,98208.27
2023-03-27T07:39:29.136Z,98203.63
2023-03-27T07:41:57.246Z,98201.41
2023-03-27T07:44:46.928Z,98190.04
2023-03-27T07:47:15.217Z,98183.31
2023-03-27T07:49:43.172Z,98178.23
2023-03-27T07:52:15.275Z,98173.23
2023-03-27T07:54:53.392Z,98176.55
2023-03-27T07:57:23.325Z,98175.55
2023-03-27T07:59:55.013Z,98172.52
2023-03-27T08:02:50.409Z,98162.92
2023-03-27T08:05:18.931Z,98162.19
2023-03-27T08:07:53.831Z,98160.73
2023-03-27T08:10:42.759Z,98155.29
2023-03-27T08:13:12.751Z,98148.15
2023-03-27T08:15:41.107Z,98148.63
2023-03-27T08:18:20.383Z,98141.31
2023-03-27T08:20:49.782Z,98136.48
2023-03-27T08:23:17.830Z,98126.14
2023-03-27T08:26:09.254Z,98123.34
2023-03-27T08:28:44.952Z,98125.20
2023-03-27T08:31:15.630Z,98132.25
2023-03-27T08:33:44.815Z,98134.30
2023-03-27T08:36:20.078Z,98134.96
2023-03-27T08:38:48.148Z,98138.46
2023-03-27T08:41:30.864Z,98142.11
2023-03-27T08:44:20.476Z,98130.92
2023-03-27T08:47:03.134Z,98125.70
2023-03-27T08:49:47.311Z,98125.70
2023-03-27T08:52:31.901Z,98123.17
2023-03-27T08:55:19.073Z,98119.85
2023-03-27T08:58:00.276Z,98121.80
2023-03-27T09:00:39.677Z,98121.35
2023-03-27T09:03:56.169Z,98120.08
2023-03-27T09:06:30.229Z,98115.05
2023-03-27T09:09:23.128Z,98111.84
2023-03-27T09:12:00.399Z,98115.03
2023-03-27T09:14:43.151Z,98114.73
2023-03-27T09:17:25.484Z,98115.34
2023-03-27T09:20:08.953Z,98115.25
2023-03-27T09:22:48.574Z,98120.62
2023-03-27T09:25:35.784Z,98124.65
2023-03-27T09:28:42.612Z,98121.96
2023-03-27T09:31:29.140Z,98121.20
2023-03-27T09:34:02.253Z,98124.68
2023-03-27T09:36:30.920Z,98124.54
2023-03-27T09:39:08.191Z,98125.02
2023-03-27T09:41:51.220Z,98125.34
2023-03-27T09:44:34.559Z,98125.18
2023-03-27T09:47:17.870Z,98122.33
2023-03-27T09:49:51.644Z,98121.97
2023-03-27T09:52:40.742Z,98126.96
2023-03-27T09:55:30.122Z,98124.04
2023-03-27T09:58:14.233Z,98121.10
2023-03-27T10:00:59.014Z,98123.81
2023-03-27T10:03:38.955Z,98123.73
2023-03-27T10:06:10.405Z,98120.26
2023-03-27T10:08:55.530Z,98120.98
2023-03-27T10:11:32.899Z,98119.16
2023-03-27T10:14:17.043Z,98114.60
2023-03-27T10:16:47.916Z,98117.48
2023-03-27T10:19:23.538Z,98113.69
2023-03-27T10:21:53.570Z,98107.61
2023-03-27T10:24:36.587Z,98109.39
2023-03-27T10:27:28.547Z,98113.38
2023-03-27T10:30:34.024Z,98115.42
2023-03-27T10:33:37.379Z,98113.23
2023-03-27T10:36:40.693Z,98105.46
2023-03-27T10:39:14.726Z,98107.52
2023-03-27T10:42:09.982Z,98106.96
2023-03-27T10:44:43.170Z,98101.77
2023-03-27T10:47:24.544Z,98106.62
2023-03-27T10:50:10.800Z,98103.39
2023-03-27T10:52:56.200Z,98102.52
2023-03-27T10:55:56.620Z,98102.25
2023-03-27T10:58:28.746Z,98100.55
2023-03-27T11:01:23.159Z,98106.19
2023-03-27T11:03:56.388Z,98105.19
2023-03-27T11:06:31.635Z,98111.00
2023-03-27T11:09:33.772Z,98113.26
2023-03-27T11:12:14.337Z,98110.40
2023-03-27T11:15:15.543Z,98112.64
2023-03-27T11:17:56.144Z,98107.70
2023-03-27T11:20:40.322Z,98105.67
2023-03-27T11:23:48.511Z,98108.89
2023-03-27T11:26:27.952Z,98103.83
2023-03-27T11:29:11.323Z,98103.71
2023-03-27T11:31:57.252Z,98101.80
2023-03-27T11:35:06.629Z,98101.14
2023-03-27T11:37:45.833Z,98103.83
2023-03-27T11:40:23.992Z,98100.36
2023-03-27T11:42:58.272Z,98097.39
2023-03-27T11:45:38.414Z,98092.67
2023-03-27T11:48:28.282Z,98083.80
2023-03-27T11:51:10.815Z,98083.14
2023-03-27T11:53:45.387Z,98081.49
2023-03-27T11:56:50.952Z,98082.14
2023-03-27T11:59:39.965Z,98076.10
2023-03-27T12:02:11.147Z,98074.41
2023-03-27T12:05:18.111Z,98073.59
2023-03-27T12:07:51.795Z,98069.14
2023-03-27T12:10:32.045Z,98068.30
2023-03-27T12:13:19.221Z,98073.05
2023-03-27T12:16:08.709Z,98079.81
2023-03-27T12:19:27.761Z,98076.02
2023-03-27T12:22:28.592Z,98073.06
2023-03-27T12:25:08.213Z,98073.00
2023-03-27T12:28:06.550Z,98079.73
2023-03-27T12:31:19.413Z,98091.33
2023-03-27T12:33:57.134Z,98088.27
2023-03-27T12:36:28.070Z,98086.25
2023-03-27T12:38:56.472Z,98086.89
2023-03-27T12:41:30.123Z,98091.02
2023-03-27T12:44:06.345Z,98086.63
2023-03-27T12:46:42.405Z,98086.75
2023-03-27T12:49:12.943Z,98098.86
2023-03-27T12:51:51.985Z,98097.48
2023-03-27T12:54:39.275Z,98099.80
2023-03-27T12:57:25.849Z,98102.81
2023-03-27T12:59:59.082Z,98100.05
2023-03-27T13:02:48.848Z,98107.19
2023-03-27T13:05:27.410Z,98106.14
2023-03-27T13:08:14.955Z,98106.39
2023-03-27T13:11:30.655Z,98111.83
2023-03-27T13:14:20.551Z,98111.84
2023-03-27T13:17:01.307Z,98112.04
2023-03-27T13:19:36.345Z,98111.05
2023-03-27T13:22:37.405Z,98109.73
2023-03-27T13:25:47.305Z,98109.65
2023-03-27T13:28:34.657Z,98109.16
2023-03-27T13:31:49.758Z,98103.92
2023-03-27T13:35:05.094Z,98104.10
2023-03-27T13:37:36.505Z,98105.35
2023-03-27T13:40:24.503Z,98108.13
2023-03-27T13:43:05.149Z,98109.52
2023-03-27T13:45:48.261Z,98107.40
2023-03-27T13:49:08.076Z,98107.94
2023-03-27T13:52:24.048Z,98107.02
2023-03-27T13:55:17.033Z,98106.27
2023-03-27T13:58:17.410Z,98102.02
2023-03-27T14:00:57.650Z,98099.96
2023-03-27T14:03:57.762Z,98096.52
2023-03-27T14:06:49.502Z,98090.91
2023-03-27T14:09:24.375Z,98092.52
2023-03-27T14:12:23.740Z,98090.36
2023-03-27T14:15:24.059Z,98093.11
2023-03-27T14:18:24.046Z,98092.40
2023-03-27T14:21:00.642Z,98095.63
2023-03-27T14:23:46.771Z,98098.42
2023-03-27T14:26:25.312Z,98102.55
2023-03-27T14:29:02.360Z,98100.30
2023-03-27T14:31:44.337Z,98110.17
2023-03-27T14:34:24.903Z,98113.69
2023-03-27T14:37:39.491Z,98118.62
2023-03-27T14:40:36.894Z,98123.89
2023-03-27T14:43:07.336Z,98123.67
2023-03-27T14:45:40.252Z,98124.33
2023-03-27T14:48:31.106Z,98122.10
2023-03-27T14:51:05.977Z,98120.55
2023-03-27T14:53:44.574Z,98122.89
2023-03-27T14:56:47.807Z,98121.11
2023-03-27T14:59:41.754Z,98126.53
2023-03-27T15:02:22.438Z,98128.64
2023-03-27T15:05:04.358Z,98129.64
2023-03-27T15:07:36.464Z,98133.16
2023-03-27T15:10:26.211Z,98135.39
2023-03-27T15:13:36.653Z,98135.02
2023-03-27T15:16:07.468Z,98132.92
2023-03-27T15:19:09.919Z,98133.59
2023-03-27T15:21:53.255Z,98135.91
2023-03-27T15:24:51.039Z,98133.95
2023-03-27T15:27:23.918Z,98131.69
2023-03-27T15:30:03.567Z,98130.11
2023-03-27T15:32:50.356Z,98128.80
2023-03-27T15:35:31.007Z,98138.63
2023-03-27T15:38:00.154Z,98141.48
2023-03-27T15:40:43.240Z,98146.48
2023-03-27T15:43:14.273Z,98151.73
2023-03-27T15:45:58.975Z,98154.14
2023-03-27T15:48:38.132Z,98157.38
2023-03-27T15:51:28.084Z,98161.55
2023-03-27T15:53:56.377Z,98162.88
2023-03-27T15:57:10.385Z,98164.63
2023-03-27T15:59:51.303Z,98165.98
2023-03-27T16:02:24.782Z,98169.35
2023-03-27T16:04:56.244Z,98175.69
2023-03-27T16:07:43.758Z,98185.25
2023-03-27T16:10:16.650Z,98192.36
2023-03-27T16:12:47.878Z,98191.61
2023-03-27T16:15:30.955Z,98191.59
2023-03-27T16:18:04.113Z,98197.17
2023-03-27T16:20:35.109Z,98201.59
2023-03-27T16:23:04.301Z,98208.66
2023-03-27T16:25:32.572Z,98211.24
2023-03-27T16:28:00.766Z,98214.94
2023-03-27T16:30:38.995Z,98218.48
2023-03-27T16:33:16.264Z,98221.84
2023-03-27T16:35:46.249Z,98227.48
2023-03-27T16:38:18.342Z,98233.33
2023-03-27T16:40:46.728Z,98238.32
2023-03-27T16:43:15.049Z,98242.11
2023-03-27T16:45:44.943Z,98242.67
2023-03-27T16:48:13.728Z,98247.02
2023-03-27T16:50:42.158Z,98252.08
2023-03-27T16:53:10.418Z,98255.83
2023-03-27T16:55:38.629Z,98261.98
2023-03-27T16:58:06.576Z,98264.04
2023-03-27T17:00:34.603Z,98263.98
2023-03-27T17:03:02.795Z,98269.98
2023-03-27T17:05:34.511Z,98277.12
2023-03-27T17:08:03.682Z,98277.44
2023-03-27T17:10:32.690Z,98279.24
2023-03-27T17:13:00.607Z,98284.72
2023-03-27T17:15:28.827Z,98287.23
2023-03-27T17:17:57.031Z,98291.02
2023-03-27T17:20:25.468Z,98296.10
2023-03-27T17:23:04.496Z,98305.09
2023-03-27T17:25:55.451Z,98308.05
2023-03-27T17:28:36.319Z,98315.67
2023-03-27T17:31:05.742Z,98327.23
2023-03-27T17:33:34.239Z,98333.86
2023-03-27T17:36:08.789Z,98346.08
2023-03-27T17:38:37.225Z,98372.21
2023-03-27T17:41:06.368Z,98395.95
2023-03-27T17:43:34.495Z,98405.85
2023-03-27T17:46:02.776Z,98412.06
2023-03-27T17:48:35.514Z,98417.16
2023-03-27T17:51:09.410Z,98435.63
2023-03-27T17:53:39.207Z,98460.58
2023-03-27T17:56:08.104Z,98464.86
2023-03-27T17:58:37.162Z,98474.91
2023-03-27T18:01:19.628Z,98495.45
2023-03-27T18:03:48.225Z,98520.27
2023-03-27T18:06:17.719Z,98537.38
2023-03-27T18:08:46.934Z,98551.95
2023-03-27T18:11:16.357Z,98572.06
2023-03-27T18:13:44.931Z,98575.61
2023-03-27T18:16:12.853Z,98585.16
2023-03-27T18:18:40.894Z,98601.23
2023-03-27T18:21:09.816Z,98620.82
2023-03-27T18:23:46.357Z,98633.58
2023-03-27T18:26:17.499Z,98644.74
2023-03-27T18:28:45.826Z,98641.14
2023-03-27T18:31:15.943Z,98649.02
2023-03-27T18:33:44.325Z,98667.99
2023-03-27T18:36:12.549Z,98673.88
2023-03-27T18:38:42.203Z,98685.25
2023-03-27T18:41:10.765Z,98692.48
2023-03-27T18:43:38.807Z,98707.81
2023-03-27T18:46:08.071Z,98720.00
2023-03-27T18:48:36.266Z,98729.67
2023-03-27T18:51:06.281Z,98735.83
2023-03-27T18:53:35.309Z,98739.73
2023-03-27T18:56:03.704Z,98750.78
2023-03-27T18:58:32.314Z,98760.50
2023-03-27T19:01:00.940Z,98759.84
2023-03-27T19:03:35.189Z,98771.30
2023-03-27T19:06:06.493Z,98775.95
2023-03-27T19:08:37.751Z,98795.91
2023-03-27T19:11:08.461Z,98800.58
2023-03-27T19:13:55.901Z,98799.20
2023-03-27T19:16:31.257Z,98805.42
2023-03-27T19:19:18.382Z,98811.13
2023-03-27T19:21:49.917Z,98819.80
2023-03-27T19:24:24.967Z,98824.70
2023-03-27T19:26:53.213Z,98835.59
2023-03-27T19:29:21.512Z,98845.39
2023-03-27T19:31:54.495Z,98845.32
2023-03-27T19:34:29.966Z,98854.73
2023-03-27T19:37:04.501Z,98860.97
2023-03-27T19:39:33.142Z,98869.35
2023-03-27T19:42:01.240Z,98868.42
2023-03-27T19:44:29.461Z,98873.67
2023-03-27T19:46:57.440Z,98886.16
2023-03-27T19:49:26.608Z,98892.70
2023-03-27T19:52:16.802Z,98900.52
2023-03-27T19:54:44.727Z,98909.77
2023-03-27T19:57:12.889Z,98911.60
2023-03-27T19:59:41.032Z,98918.64
2023-03-27T20:02:11.891Z,98926.75
2023-03-27T20:04:39.916Z,98929.77
2023-03-27T20:07:10.169Z,98941.85
2023-03-27T20:09:38.610Z,98946.88
2023-03-27T20:12:07.241Z,98953.56
2023-03-27T20:14:35.512Z,98952.27
2023-03-27T20:17:04.279Z,98957.55
2023-03-27T20:19:35.019Z,98964.27
2023-03-27T20:22:05.019Z,98965.71
2023-03-27T20:24:33.099Z,98973.05
2023-03-27T20:27:02.233Z,98972.70
2023-03-27T20:29:30.243Z,98980.19
2023-03-27T20:31:58.133Z,98988.58
2023-03-27T20:34:26.137Z,99001.30
2023-03-27T20:36:54.917Z,99006.67
2023-03-27T20:39:49.359Z,99007.95
2023-03-27T20:42:23.111Z,99018.70
2023-03-27T20:44:58.289Z,99020.29
2023-03-27T20:47:26.615Z,99028.09
2023-03-27T20:49:59.055Z,99036.25
2023-03-27T20:52:27.082Z,99039.00
2023-03-27T20:54:55.132Z,99044.12
2023-03-27T20:57:23.101Z,99048.54
2023-03-27T20:59:51.546Z,99054.86
2023-03-27T21:02:20.627Z,99066.47
2023-03-27T21:04:48.719Z,99073.58
2023-03-27T21:07:18.152Z,99077.95
2023-03-27T21:09:47.301Z,99088.73
2023-03-27T21:12:15.344Z,99096.27
2023-03-27T21:14:43.351Z,99098.79
2023-03-27T21:17:14.424Z,99108.98
2023-03-27T21:19:42.928Z,99114.91
2023-03-27T21:22:11.178Z,99124.38
2023-03-27T21:24:40.699Z,99131.30
2023-03-27T21:27:08.762Z,99137.14
2023-03-27T21:29:36.852Z,99138.05
2023-03-27T21:32:05.945Z,99146.55
2023-03-27T21:34:33.888Z,99150.84
2023-03-27T21:37:02.807Z,99154.54
2023-03-27T21:39:30.921Z,99160.50
2023-03-27T21:41:58.929Z,99159.23
2023-03-27T21:44:29.640Z,99165.16
2023-03-27T21:46:57.681Z,99170.63
2023-03-27T21:49:26.629Z,99178.61
2023-03-27T21:51:54.523Z,99180.59
2023-03-27T21:54:22.433Z,99182.45
2023-03-27T21:56:50.955Z,99194.23
2023-03-27T21:59:19.016Z,99199.21
2023-03-27T22:01:47.233Z,99202.80
2023-03-27T22:04:15.638Z,99208.30
2023-03-27T22:06:44.464Z,99214.67
2023-03-27T22:09:13.072Z,99216.87
2023-03-27T22:11:41.270Z,99226.77
2023-03-27T22:14:09.447Z,99226.11
2023-03-27T22:16:37.463Z,99226.60
2023-03-27T22:19:05.934Z,99234.42
2023-03-27T22:21:34.831Z,99236.73
2023-03-27T22:24:03.243Z,99240.88
2023-03-27T22:26:37.240Z,99242.70
2023-03-27T22:29:07.886Z,99247.23
2023-03-27T22:31:36.600Z,99246.67
2023-03-27T22:34:05.571Z,99253.46
2023-03-27T22:36:34.434Z,99255.38
2023-03-27T22:39:04.003Z,99251.91
2023-03-27T22:41:31.973Z,99257.34
2023-03-27T22:44:01.821Z,99267.63
2023-03-27T22:46:29.985Z,99270.50
2023-03-27T22:48:58.957Z,99273.59
2023-03-27T22:51:31.402Z,99288.60
2023-03-27T22:53:59.741Z,99294.76
2023-03-27T22:56:27.698Z,99304.49
2023-03-27T22:58:55.625Z,99309.15
2023-03-27T23:01:23.641Z,99309.30
2023-03-27T23:03:51.755Z,99314.48
2023-03-27T23:06:22.891Z,99321.38
2023-03-27T23:08:51.719Z,99324.38
2023-03-27T23:11:20.372Z,99334.95
2023-03-27T23:13:48.704Z,99332.64
2023-03-27T23:16:16.707Z,99339.38
2023-03-27T23:18:44.623Z,99344.23
2023-03-27T23:21:16.542Z,99351.20
2023-03-27T23:23:45.309Z,99352.15
2023-03-27T23:26:13.924Z,99359.88
2023-03-27T23:28:42.609Z,99363.41
2023-03-27T23:31:13.818Z,99373.88
2023-03-27T23:33:44.739Z,99377.73
2023-03-27T23:36:16.175Z,99378.48
2023-03-27T23:38:44.460Z,99385.91
2023-03-27T23:41:14.529Z,99387.31
2023-03-27T23:43:42.521Z,99386.80
2023-03-27T23:46:11.371Z,99385.71
2023-03-27T23:48:41.969Z,99389.71
2023-03-27T23:51:11.187Z,99385.58
2023-03-27T23:53:39.324Z,99390.94
2023-03-27T23:56:08.159Z,99396.40
2023-03-27T23:58:37.495Z,99397.38
